Funkhouser, Illinois
Current Conditions -  °F | °C
As of 9:15 AM on Friday 31 Oct 2014 (Local Time) from K1H2 Reporting Station
Overcast Overcast  
Wind Chill: 32°   Ceiling: 3200
Heat Index: 42°   Visibility: 10mi
Dew Point: 30°   Wind: 23mph
Humidity: 62%   Direction: 320°NW
Pressure: 30.15"   Gusts: 30mph
Location:  39.1183°N, 88.6059°W
Report Text: K1H2 311415Z AUTO 32020G26KT 10SM BKN032 OVC048 06/M01 A3015 RMK AO2 T00551013
Loading
Personal Weather Stations






























Interactive Weather Map
Tropical Storm Tracking
New forecast layout! Learn more

10-Day Weather Forecast

Advertisements
Track Severe Weather on mobile